Time;durP1;ratioP1;P1;durP2;ratioP2;P2;SDS_P1;SDS_P2;PMS_P1;PMS_P2;Temp;Humidity;BMP_temperature;BMP_pressure;BME280_temperature;BME280_humidity;BME280_pressure;Samples;Min_cycle;Max_cycle;Signal;HPM_P1;HPM_P2
2021/09/23 00:01:54;;;;;;;;;;;;;;;20.62;53.30;100917.78;5075972;28;874;-50
2021/09/23 00:04:33;;;;;;;;;;;;;;;20.51;53.85;100919.03;5074590;28;756;-46
2021/09/23 00:06:58;;;;;;;;;;;;;;;20.52;53.78;100912.38;5075121;28;1905;-40
2021/09/23 00:09:24;;;;;;;;;;;;;;;20.52;53.85;100924.25;5076178;28;834;-50
2021/09/23 00:11:49;;;;;;;;;;;;;;;20.59;53.43;100923.88;5075357;28;851;-47
2021/09/23 00:14:15;;;;;;;;;;;;;;;20.51;53.64;100922.59;5076255;28;887;-52
2021/09/23 00:16:43;;;;;;;;;;;;;;;20.59;53.65;100923.06;5075954;28;817;-50
2021/09/23 00:19:08;;;;;;;;;;;;;;;20.55;53.75;100917.28;5075100;28;576;-48
2021/09/23 00:21:34;;;;;;;;;;;;;;;20.63;53.34;100918.59;5075251;28;961;-51
2021/09/23 00:24:08;;;;;;;;;;;;;;;20.79;52.93;100919.19;5075521;28;839;-52
2021/09/23 00:26:33;;;;;;;;;;;;;;;20.61;53.57;100915.31;5075916;28;1968;-53
2021/09/23 00:28:59;;;;;;;;;;;;;;;20.56;53.63;100915.38;5075308;28;767;-53
2021/09/23 00:31:24;;;;;;;;;;;;;;;20.64;53.36;100909.19;5075473;28;771;-49
2021/09/23 00:33:50;;;;;;;;;;;;;;;20.77;53.04;100910.41;5074205;28;1083;-41
2021/09/23 00:36:15;;;;;;;;;;;;;;;20.76;53.09;100901.31;5075289;28;970;-54
2021/09/23 00:38:41;;;;;;;;;;;;;;;20.41;54.30;100899.81;5087780;28;1009;-51
2021/09/23 00:41:06;;;;;;;;;;;;;;;20.59;53.57;100896.25;5095476;28;854;-52
2021/09/23 00:43:32;;;;;;;;;;;;;;;20.67;53.37;100895.59;5095433;28;751;-46
2021/09/23 00:45:57;;;;;;;;;;;;;;;20.56;53.58;100891.31;5095638;28;1905;-45
2021/09/23 00:48:22;;;;;;;;;;;;;;;20.39;54.10;100891.81;5094941;28;1103;-52
2021/09/23 00:50:48;;;;;;;;;;;;;;;20.66;53.28;100893.94;5095302;28;759;-50
2021/09/23 00:53:17;;;;;;;;;;;;;;;20.57;53.53;100890.22;5076280;28;997;-52
2021/09/23 00:55:43;;;;;;;;;;;;;;;20.24;54.71;100892.03;5090228;28;1122;-47
2021/09/23 00:58:09;;;;;;;;;;;;;;;20.31;54.44;100896.09;5074132;28;1114;-48
2021/09/23 01:00:40;;;;;;;;;;;;;;;20.35;54.30;100902.63;5073921;28;1260;-45
2021/09/23 01:03:14;;;;;;;;;;;;;;;20.37;54.30;100896.00;5073601;28;1535;-50
2021/09/23 01:05:41;;;;;;;;;;;;;;;20.36;54.08;100903.47;5073624;28;1914;-43
2021/09/23 01:08:10;;;;;;;;;;;;;;;20.33;54.10;100890.28;5074526;28;953;-52
2021/09/23 01:10:35;;;;;;;;;;;;;;;20.28;54.27;100895.84;5088809;28;829;-52
2021/09/23 01:13:03;;;;;;;;;;;;;;;20.22;54.37;100888.75;5075437;28;751;-44
2021/09/23 01:15:48;;;;;;;;;;;;;;;20.13;54.56;100889.41;5074917;28;1406;-43
2021/09/23 01:18:14;;;;;;;;;;;;;;;20.24;54.44;100894.78;5073655;28;1142;-51
2021/09/23 01:20:49;;;;;;;;;;;;;;;20.08;54.94;100894.16;5090246;28;1217;-38
2021/09/23 01:23:15;;;;;;;;;;;;;;;20.13;54.83;100892.16;5073441;28;1221;-52
2021/09/23 01:25:45;;;;;;;;;;;;;;;20.15;54.63;100889.09;5073065;28;1918;-45
2021/09/23 01:28:11;;;;;;;;;;;;;;;20.25;54.29;100890.91;5073982;28;1079;-50
2021/09/23 01:30:57;;;;;;;;;;;;;;;20.07;54.88;100889.75;5074245;28;1023;-53
2021/09/23 01:33:28;;;;;;;;;;;;;;;19.97;55.02;100887.94;5072867;28;1232;-49
2021/09/23 01:35:54;;;;;;;;;;;;;;;19.96;55.10;100894.56;5090738;28;1245;-51
2021/09/23 01:38:20;;;;;;;;;;;;;;;20.04;54.84;100893.13;5073322;28;1324;-48
2021/09/23 01:40:45;;;;;;;;;;;;;;;20.05;54.64;100891.97;5073128;28;1236;-42
2021/09/23 01:43:11;;;;;;;;;;;;;;;20.08;54.70;100889.47;5074066;28;1109;-41
2021/09/23 01:45:42;;;;;;;;;;;;;;;20.13;54.52;100889.41;5074352;28;1914;-40
2021/09/23 01:48:08;;;;;;;;;;;;;;;20.11;54.37;100888.88;5076449;28;1142;-45
2021/09/23 01:50:36;;;;;;;;;;;;;;;20.08;54.46;100892.22;5076860;28;1284;-54
2021/09/23 01:53:01;;;;;;;;;;;;;;;19.99;54.88;100889.28;5077155;28;1067;-39
2021/09/23 01:55:27;;;;;;;;;;;;;;;20.15;54.52;100886.34;5073304;28;1149;-41
2021/09/23 01:57:56;;;;;;;;;;;;;;;20.05;54.58;100895.56;5073543;28;1212;-54
2021/09/23 02:00:23;;;;;;;;;;;;;;;20.05;54.65;100898.34;5073075;28;1140;-50
2021/09/23 02:02:51;;;;;;;;;;;;;;;20.16;54.34;100894.34;5073106;28;1217;-49
2021/09/23 02:05:26;;;;;;;;;;;;;;;20.08;54.55;100897.75;5073328;28;1909;-42
2021/09/23 02:07:51;;;;;;;;;;;;;;;20.01;54.75;100891.75;5073989;28;950;-48
2021/09/23 02:10:17;;;;;;;;;;;;;;;20.15;54.34;100892.69;5090036;28;1149;-53
2021/09/23 02:12:45;;;;;;;;;;;;;;;20.01;54.82;100894.53;5089644;28;756;-54
2021/09/23 02:15:14;;;;;;;;;;;;;;;19.99;54.89;100894.81;5073438;28;1212;-54
2021/09/23 02:17:46;;;;;;;;;;;;;;;20.22;54.05;100897.03;5073866;28;875;-54
2021/09/23 02:20:14;;;;;;;;;;;;;;;20.03;54.60;100892.28;5072743;28;1248;-38
2021/09/23 02:22:47;;;;;;;;;;;;;;;19.89;55.00;100894.91;5070536;28;1268;-52
2021/09/23 02:25:12;;;;;;;;;;;;;;;20.14;54.29;100887.47;5076256;28;1933;-49
2021/09/23 02:27:38;;;;;;;;;;;;;;;20.15;54.25;100889.09;5076603;28;1114;-41
2021/09/23 02:30:04;;;;;;;;;;;;;;;19.95;54.80;100890.16;5080239;28;1213;-50
2021/09/23 02:32:30;;;;;;;;;;;;;;;20.00;54.83;100895.63;5079380;28;1066;-53
2021/09/23 02:34:56;;;;;;;;;;;;;;;20.00;54.88;100895.63;5098011;28;739;-48
2021/09/23 02:37:22;;;;;;;;;;;;;;;19.90;54.79;100893.00;5076039;28;1952;-51
2021/09/23 02:39:47;;;;;;;;;;;;;;;19.99;54.70;100905.00;5077380;28;743;-43
2021/09/23 02:42:13;;;;;;;;;;;;;;;19.82;55.06;100895.28;5077671;28;747;-41
2021/09/23 02:44:38;;;;;;;;;;;;;;;20.02;54.50;100900.84;5077674;28;764;-45
2021/09/23 02:47:03;;;;;;;;;;;;;;;19.95;54.75;100893.75;5081383;28;2022;-50
2021/09/23 02:49:29;;;;;;;;;;;;;;;20.04;54.31;100901.41;5098312;28;775;-52
2021/09/23 02:51:55;;;;;;;;;;;;;;;19.85;54.80;100901.31;5074495;28;1208;-50
2021/09/23 02:54:26;;;;;;;;;;;;;;;19.99;54.68;100910.53;5076944;28;807;-47
2021/09/23 02:56:52;;;;;;;;;;;;;;;19.90;54.58;100907.59;5076267;28;1133;-42
2021/09/23 02:59:17;;;;;;;;;;;;;;;20.03;54.12;100910.78;5076446;28;823;-42
2021/09/23 03:01:43;;;;;;;;;;;;;;;19.87;54.59;100910.16;5075948;28;1374;-50
2021/09/23 03:04:08;;;;;;;;;;;;;;;19.95;54.37;100912.22;5075781;28;1181;-46
2021/09/23 03:06:34;;;;;;;;;;;;;;;20.10;54.13;100916.78;5076390;28;1901;-46
2021/09/23 03:08:59;;;;;;;;;;;;;;;19.98;54.19;100915.25;5076480;28;740;-50
2021/09/23 03:11:27;;;;;;;;;;;;;;;19.86;54.50;100914.00;5075974;28;1263;-50
2021/09/23 03:13:52;;;;;;;;;;;;;;;19.97;54.09;100912.78;5075844;28;1106;-52
2021/09/23 03:16:18;;;;;;;;;;;;;;;19.82;54.65;100906.31;5075362;28;1213;-41
2021/09/23 03:18:45;;;;;;;;;;;;;;;19.92;54.33;100913.66;5076073;28;1118;-48
2021/09/23 03:21:11;;;;;;;;;;;;;;;19.83;54.78;100915.41;5076050;28;1272;-47
2021/09/23 03:23:36;;;;;;;;;;;;;;;20.01;54.12;100911.09;5074459;28;1244;-48
2021/09/23 03:26:03;;;;;;;;;;;;;;;19.85;54.49;100909.59;5096438;28;1970;-49
2021/09/23 03:28:33;;;;;;;;;;;;;;;19.87;54.38;100918.44;5078389;28;1133;-48
2021/09/23 03:30:58;;;;;;;;;;;;;;;19.84;54.58;100922.59;5096410;28;735;-48
2021/09/23 03:33:27;;;;;;;;;;;;;;;19.97;54.24;100919.13;5097142;28;763;-46
2021/09/23 03:35:52;;;;;;;;;;;;;;;19.83;54.56;100918.97;5097011;28;748;-51
2021/09/23 03:38:18;;;;;;;;;;;;;;;19.96;54.31;100922.16;5076568;28;985;-47
2021/09/23 03:40:45;;;;;;;;;;;;;;;19.99;54.07;100916.91;5076623;28;783;-49
2021/09/23 03:43:16;;;;;;;;;;;;;;;19.99;54.34;100927.09;5076525;28;747;-46
2021/09/23 03:45:41;;;;;;;;;;;;;;;20.08;53.80;100928.09;5075732;28;1906;-49
2021/09/23 03:48:07;;;;;;;;;;;;;;;19.98;54.10;100933.75;5078861;28;1365;-50
2021/09/23 03:50:32;;;;;;;;;;;;;;;20.05;54.11;100934.22;5078715;28;1237;-50
2021/09/23 03:52:58;;;;;;;;;;;;;;;19.96;54.24;100933.22;5072754;28;1305;-38
2021/09/23 03:55:23;;;;;;;;;;;;;;;20.01;54.13;100941.44;5074686;28;1221;-39
2021/09/23 03:57:49;;;;;;;;;;;;;;;19.78;54.60;100943.88;5074669;28;1508;-38
2021/09/23 04:00:20;;;;;;;;;;;;;;;19.93;54.32;100953.13;5074672;28;1488;-48
2021/09/23 04:02:47;;;;;;;;;;;;;;;19.80;54.76;100949.94;5075187;28;1271;-47
2021/09/23 04:05:12;;;;;;;;;;;;;;;19.73;54.84;100952.19;5091733;28;1965;-49
2021/09/23 04:07:38;;;;;;;;;;;;;;;19.88;54.32;100962.28;5075236;28;970;-41
2021/09/23 04:10:04;;;;;;;;;;;;;;;20.02;54.23;100956.91;5091270;28;1132;-58
2021/09/23 04:12:30;;;;;;;;;;;;;;;20.05;54.22;100970.09;5076311;28;791;-49
2021/09/23 04:14:57;;;;;;;;;;;;;;;19.98;54.61;100969.63;5075409;28;910;-48
2021/09/23 04:17:23;;;;;;;;;;;;;;;20.02;54.42;100976.22;5092305;28;1145;-47
2021/09/23 04:19:52;;;;;;;;;;;;;;;20.04;54.26;100979.50;5074325;28;1381;-39
2021/09/23 04:22:18;;;;;;;;;;;;;;;19.90;54.65;100976.59;5075452;28;934;-52
2021/09/23 04:24:50;;;;;;;;;;;;;;;19.97;54.22;100979.03;5076778;28;1154;-44
2021/09/23 04:27:16;;;;;;;;;;;;;;;19.85;54.70;100981.34;5095934;28;1910;-51
2021/09/23 04:29:43;;;;;;;;;;;;;;;19.77;54.99;100989.13;5094176;28;968;-42
2021/09/23 04:32:12;;;;;;;;;;;;;;;19.98;54.15;100997.25;5077369;28;802;-48
2021/09/23 04:34:38;;;;;;;;;;;;;;;19.79;54.61;100995.19;5077443;28;1405;-54
2021/09/23 04:37:04;;;;;;;;;;;;;;;19.88;54.54;100997.31;5076904;28;1117;-66
2021/09/23 04:39:30;;;;;;;;;;;;;;;19.74;54.90;100995.22;5077376;28;1082;-64
2021/09/23 04:41:55;;;;;;;;;;;;;;;19.74;55.05;100997.97;5077646;28;1217;-63
2021/09/23 04:44:21;;;;;;;;;;;;;;;19.86;54.61;100999.56;5094497;28;1247;-64
2021/09/23 05:03:49;;;;;;;;;;;;;;;19.87;54.35;101026.06;4900952;23;3706;-45
2021/09/23 05:06:14;;;;;;;;;;;;;;;19.69;54.71;101031.13;4909449;29;1927;-51
2021/09/23 05:08:40;;;;;;;;;;;;;;;19.64;55.05;101031.16;4922764;29;1704;-47
2021/09/23 05:11:09;;;;;;;;;;;;;;;19.95;53.89;101028.16;4917914;29;1060;-54
2021/09/23 05:13:34;;;;;;;;;;;;;;;19.68;54.64;101021.19;4919383;29;796;-48
2021/09/23 05:16:00;;;;;;;;;;;;;;;19.67;54.70;101030.59;4919756;29;824;-45
2021/09/23 05:18:25;;;;;;;;;;;;;;;19.71;54.54;101044.63;4920856;23;1948;-52
2021/09/23 17:26:37;;;;;;;;;;;;;;;19.47;52.65;101131.69;5104488;27;1305;-63
2021/09/23 17:29:03;;;;;;;;;;;;;;;19.39;52.93;101129.53;5099653;28;2542;-62
2021/09/23 17:31:29;;;;;;;;;;;;;;;19.49;52.86;101140.50;5265685;22;3681;-61
2021/09/23 17:33:54;;;;;;;;;;;;;;;19.45;52.64;101139.41;5101303;28;1269;-60
2021/09/23 17:36:20;;;;;;;;;;;;;;;19.53;52.62;101150.94;5094222;28;1325;-63
2021/09/23 17:38:47;;;;;;;;;;;;;;;19.60;52.63;101151.44;5092205;28;2262;-60
2021/09/23 17:41:14;;;;;;;;;;;;;;;19.59;52.66;101153.41;5123291;28;899;-60
2021/09/23 17:43:39;;;;;;;;;;;;;;;19.53;52.85;101145.44;5091782;28;842;-61
2021/09/23 17:46:05;;;;;;;;;;;;;;;19.49;52.81;101147.94;5091005;28;1909;-64
2021/09/23 17:48:31;;;;;;;;;;;;;;;19.52;52.82;101152.03;5091236;28;739;-63
2021/09/23 17:50:56;;;;;;;;;;;;;;;19.52;52.95;101149.28;5091104;28;866;-64
2021/09/23 17:53:21;;;;;;;;;;;;;;;19.52;52.83;101146.53;5110491;28;1120;-67
2021/09/23 17:55:47;;;;;;;;;;;;;;;19.53;52.98;101150.94;5111946;28;775;-62
2021/09/23 17:58:12;;;;;;;;;;;;;;;19.51;52.83;101156.75;5111748;28;779;-66
2021/09/23 18:00:38;;;;;;;;;;;;;;;19.45;53.14;101144.09;5110857;28;838;-63
2021/09/23 18:03:03;;;;;;;;;;;;;;;19.47;52.85;101142.72;5111443;28;751;-64
2021/09/23 18:05:29;;;;;;;;;;;;;;;19.53;52.87;101142.66;5111574;28;1894;-63
2021/09/23 18:07:54;;;;;;;;;;;;;;;19.38;53.38;101147.16;5111204;28;1172;-63
2021/09/23 18:10:20;;;;;;;;;;;;;;;19.43;53.37;101144.41;5111202;28;1045;-67
2021/09/23 18:12:45;;;;;;;;;;;;;;;19.42;53.22;101151.00;5111064;28;819;-63
2021/09/23 18:15:11;;;;;;;;;;;;;;;19.48;53.19;101143.53;5110831;28;799;-63
2021/09/23 18:17:36;;;;;;;;;;;;;;;19.48;52.92;101146.28;5110173;28;807;-63
2021/09/23 18:20:02;;;;;;;;;;;;;;;19.48;53.33;101157.31;5109859;28;772;-63
2021/09/23 18:22:27;;;;;;;;;;;;;;;19.45;53.22;101152.38;5110400;28;1117;-62
2021/09/23 18:24:53;;;;;;;;;;;;;;;19.65;52.72;101148.66;5110863;28;1905;-62
2021/09/23 18:27:19;;;;;;;;;;;;;;;19.59;52.80;101158.91;5110765;28;747;-61
2021/09/23 18:29:44;;;;;;;;;;;;;;;19.66;52.55;101164.94;5110127;28;866;-63
2021/09/23 18:32:10;;;;;;;;;;;;;;;19.56;53.02;101164.16;5110091;28;1070;-62
2021/09/23 18:34:37;;;;;;;;;;;;;;;19.57;53.15;101160.31;5111650;28;743;-61
2021/09/23 18:37:02;;;;;;;;;;;;;;;19.57;52.93;101163.91;5102146;28;1125;-61
2021/09/23 18:39:28;;;;;;;;;;;;;;;19.67;52.57;101157.50;5096836;28;815;-64
2021/09/23 18:41:53;;;;;;;;;;;;;;;19.63;52.89;101154.47;5095728;28;815;-63
2021/09/23 18:44:19;;;;;;;;;;;;;;;19.66;52.86;101167.69;5097346;28;1972;-63
2021/09/23 18:46:45;;;;;;;;;;;;;;;19.70;52.71;101162.44;5096973;28;1087;-64
2021/09/23 18:49:10;;;;;;;;;;;;;;;19.67;52.75;101169.34;5097384;28;731;-64
2021/09/23 18:51:36;;;;;;;;;;;;;;;19.83;52.11;101167.34;5096392;28;1057;-62
2021/09/23 18:54:01;;;;;;;;;;;;;;;19.67;52.71;101157.50;5096508;28;784;-62
2021/09/23 18:56:27;;;;;;;;;;;;;;;19.71;52.61;101161.31;5096933;28;739;-65
2021/09/23 18:58:52;;;;;;;;;;;;;;;19.74;52.60;101163.53;5095323;28;800;-62
2021/09/23 19:01:18;;;;;;;;;;;;;;;19.93;52.08;101160.13;5090673;28;1415;-63
2021/09/23 19:03:43;;;;;;;;;;;;;;;19.76;52.28;101164.03;5094670;28;947;-65
2021/09/23 19:06:08;;;;;;;;;;;;;;;19.72;52.74;101159.41;5095774;28;1890;-64
2021/09/23 19:08:34;;;;;;;;;;;;;;;19.67;52.79;101154.75;5095750;28;1048;-62
2021/09/23 19:10:59;;;;;;;;;;;;;;;19.72;52.62;101165.72;5096337;28;1128;-63
2021/09/23 19:13:27;;;;;;;;;;;;;;;19.71;52.57;101164.06;5096282;28;791;-63
2021/09/23 19:15:52;;;;;;;;;;;;;;;19.65;52.74;101165.22;5096504;28;762;-63
2021/09/23 19:18:19;;;;;;;;;;;;;;;19.58;52.89;101161.97;5096348;28;783;-63
2021/09/23 19:20:45;;;;;;;;;;;;;;;19.61;52.92;101161.38;5096404;28;759;-62
2021/09/23 19:23:11;;;;;;;;;;;;;;;19.64;53.04;101166.31;5095817;28;1074;-63
2021/09/23 19:25:36;;;;;;;;;;;;;;;19.66;52.74;101164.94;5097341;28;1910;-62
2021/09/23 19:28:02;;;;;;;;;;;;;;;19.61;52.93;101173.22;5095312;28;849;-65
2021/09/23 19:30:27;;;;;;;;;;;;;;;19.61;52.90;101169.66;5096019;28;820;-63
2021/09/23 19:32:55;;;;;;;;;;;;;;;19.66;52.93;101172.41;5095744;28;1007;-63
2021/09/23 19:35:24;;;;;;;;;;;;;;;19.49;53.28;101168.06;5094707;28;774;-63
2021/09/23 19:37:50;;;;;;;;;;;;;;;19.64;52.87;101169.09;5095287;28;1101;-63
2021/09/23 19:40:16;;;;;;;;;;;;;;;19.61;53.00;101169.66;5096140;28;878;-63
2021/09/23 19:42:41;;;;;;;;;;;;;;;19.58;53.08;101164.72;5096576;28;755;-63
2021/09/23 19:45:07;;;;;;;;;;;;;;;19.60;53.04;101162.47;5094959;28;1991;-63
2021/09/23 19:47:32;;;;;;;;;;;;;;;19.62;53.02;101163.03;5095738;28;818;-63
2021/09/23 19:49:58;;;;;;;;;;;;;;;19.60;53.07;101160.56;5095423;28;834;-63
2021/09/23 19:52:23;;;;;;;;;;;;;;;19.59;53.11;101158.09;5095174;28;1084;-64
2021/09/23 19:54:49;;;;;;;;;;;;;;;19.66;52.71;101156.66;5095607;28;779;-64
2021/09/23 19:57:14;;;;;;;;;;;;;;;19.55;53.09;101146.00;5095717;28;739;-63
2021/09/23 19:59:40;;;;;;;;;;;;;;;19.55;53.10;101143.22;5095408;28;811;-63
2021/09/23 20:02:05;;;;;;;;;;;;;;;19.50;53.10;101141.31;5095531;28;811;-63
2021/09/23 20:04:31;;;;;;;;;;;;;;;19.57;53.00;101141.84;5095319;28;1990;-63
2021/09/23 20:06:56;;;;;;;;;;;;;;;19.56;53.03;101131.91;5094038;28;1020;-63
2021/09/23 20:09:22;;;;;;;;;;;;;;;19.55;53.03;101133.00;5095628;28;1203;-63
2021/09/23 20:11:47;;;;;;;;;;;;;;;19.58;52.99;101139.88;5095630;28;1040;-63
2021/09/23 20:14:12;;;;;;;;;;;;;;;19.64;52.94;101152.53;5095050;28;807;-64
2021/09/23 20:16:38;;;;;;;;;;;;;;;19.60;53.04;101146.78;5095169;28;815;-63
2021/09/23 20:19:03;;;;;;;;;;;;;;;19.63;52.98;101146.19;5095387;28;860;-63
2021/09/23 20:21:29;;;;;;;;;;;;;;;19.64;52.79;101152.53;5094946;28;1089;-63
2021/09/23 20:23:54;;;;;;;;;;;;;;;19.74;52.40;101151.66;5095131;28;760;-64
2021/09/23 20:26:20;;;;;;;;;;;;;;;19.66;52.71;101155.84;5094962;28;1898;-64
2021/09/23 20:28:45;;;;;;;;;;;;;;;19.70;52.74;101159.69;5094796;28;794;-64
2021/09/23 20:31:11;;;;;;;;;;;;;;;19.62;52.98;101157.53;5094837;28;1173;-64
2021/09/23 20:33:36;;;;;;;;;;;;;;;19.48;53.26;101158.13;5094166;28;803;-64
2021/09/23 20:36:02;;;;;;;;;;;;;;;19.69;52.74;101157.22;5093768;28;1072;-64
2021/09/23 20:38:27;;;;;;;;;;;;;;;19.69;52.44;101158.03;5093534;28;1029;-64
2021/09/23 20:40:53;;;;;;;;;;;;;;;19.66;52.62;101153.09;5093981;28;816;-64
2021/09/23 20:43:21;;;;;;;;;;;;;;;19.75;52.35;101154.13;5093756;28;1303;-64
2021/09/23 20:45:49;;;;;;;;;;;;;;;19.56;52.83;101158.66;5094703;28;1969;-64
2021/09/23 20:48:15;;;;;;;;;;;;;;;19.82;52.40;101153.84;5094999;28;797;-64
2021/09/23 20:50:40;;;;;;;;;;;;;;;19.90;52.22;101149.66;5094919;28;735;-64
2021/09/23 20:53:06;;;;;;;;;;;;;;;19.80;52.17;101143.09;5094345;28;1090;-64
2021/09/23 20:55:33;;;;;;;;;;;;;;;19.55;52.74;101133.00;5094735;28;740;-64
2021/09/23 20:58:10;;;;;;;;;;;;;;;19.51;52.84;101154.00;5094088;28;1232;-64
2021/09/23 21:00:35;;;;;;;;;;;;;;;19.51;53.10;101150.41;5094652;28;747;-65
2021/09/23 21:03:01;;;;;;;;;;;;;;;19.59;52.94;101152.59;5094787;28;801;-65
2021/09/23 21:05:26;;;;;;;;;;;;;;;19.58;52.85;101153.69;5094623;28;1957;-64
2021/09/23 21:07:52;;;;;;;;;;;;;;;19.70;52.49;101162.44;5093750;28;1171;-64
2021/09/23 21:10:17;;;;;;;;;;;;;;;19.60;52.73;101154.22;5094424;28;1213;-65
2021/09/23 21:12:43;;;;;;;;;;;;;;;19.63;52.68;101162.75;5094807;28;850;-63
2021/09/23 21:15:08;;;;;;;;;;;;;;;19.77;52.37;101157.44;5093943;28;1076;-64
2021/09/23 21:17:34;;;;;;;;;;;;;;;19.64;52.53;101158.91;5094472;28;796;-64
2021/09/23 21:19:59;;;;;;;;;;;;;;;19.64;52.77;101171.84;5094303;28;746;-64
2021/09/23 21:22:25;;;;;;;;;;;;;;;19.68;52.61;101164.66;5093841;28;1096;-64
2021/09/23 21:24:50;;;;;;;;;;;;;;;19.58;52.71;101167.47;5094258;28;1984;-63
2021/09/23 21:27:15;;;;;;;;;;;;;;;19.53;53.19;101167.50;5093927;28;787;-64
2021/09/23 21:29:43;;;;;;;;;;;;;;;19.69;52.50;101160.78;5093241;28;702;-63
2021/09/23 21:32:09;;;;;;;;;;;;;;;19.73;52.49;101163.81;5094351;28;1193;-64
2021/09/23 21:34:34;;;;;;;;;;;;;;;19.78;52.34;101158.25;5094305;28;811;-63
2021/09/23 21:36:59;;;;;;;;;;;;;;;19.78;52.36;101153.56;5093343;28;1124;-63
2021/09/23 21:39:25;;;;;;;;;;;;;;;19.80;52.36;101159.63;5093964;28;822;-64
2021/09/23 21:41:50;;;;;;;;;;;;;;;19.71;52.28;101142.00;5094434;28;1201;-64
2021/09/23 21:44:16;;;;;;;;;;;;;;;19.53;52.89;101150.94;5094089;28;790;-64
2021/09/23 21:46:41;;;;;;;;;;;;;;;19.80;52.22;101145.03;5093827;28;2059;-64
2021/09/23 21:49:07;;;;;;;;;;;;;;;19.81;52.17;101144.75;5094206;28;802;-64
2021/09/23 21:51:32;;;;;;;;;;;;;;;19.80;52.10;101140.31;5093536;28;1064;-64
2021/09/23 21:53:57;;;;;;;;;;;;;;;19.69;52.50;101152.50;5094147;28;801;-64
2021/09/23 21:56:23;;;;;;;;;;;;;;;19.72;52.43;101149.16;5094154;28;740;-64
2021/09/23 21:58:48;;;;;;;;;;;;;;;19.72;52.36;101138.13;5093461;28;1059;-64
2021/09/23 22:01:14;;;;;;;;;;;;;;;19.85;52.14;101141.41;5093962;28;791;-65
2021/09/23 22:03:42;;;;;;;;;;;;;;;19.75;52.31;101142.25;5094015;28;851;-64
2021/09/23 22:06:08;;;;;;;;;;;;;;;19.66;52.53;101136.53;5092868;28;1965;-64
2021/09/23 22:08:33;;;;;;;;;;;;;;;19.62;52.70;101138.22;5093500;28;1081;-64
2021/09/23 22:10:59;;;;;;;;;;;;;;;19.86;51.80;101138.34;5093808;28;979;-64
2021/09/23 22:13:24;;;;;;;;;;;;;;;19.64;52.46;101152.53;5097579;28;803;-64
2021/09/23 22:15:50;;;;;;;;;;;;;;;19.83;52.02;101138.94;5096091;28;815;-64
2021/09/23 22:18:15;;;;;;;;;;;;;;;19.76;52.37;101133.69;5097694;28;810;-64
2021/09/23 22:20:41;;;;;;;;;;;;;;;19.74;52.30;101148.88;5097315;28;799;-64
2021/09/23 22:23:07;;;;;;;;;;;;;;;19.77;52.31;101140.06;5096169;28;1112;-64
2021/09/23 22:25:32;;;;;;;;;;;;;;;19.74;52.19;101135.94;5098090;28;1909;-64
2021/09/23 22:27:57;;;;;;;;;;;;;;;19.61;52.59;101142.06;5097048;28;819;-64
2021/09/23 22:30:23;;;;;;;;;;;;;;;19.67;52.53;101144.53;5097160;28;852;-64
2021/09/23 22:32:48;;;;;;;;;;;;;;;19.61;52.61;101145.66;5097362;28;1090;-64
2021/09/23 22:35:14;;;;;;;;;;;;;;;19.69;52.60;101141.47;5096927;28;744;-64
2021/09/23 22:37:39;;;;;;;;;;;;;;;19.57;52.76;101135.47;5096762;28;1070;-64
2021/09/23 22:40:05;;;;;;;;;;;;;;;19.54;52.97;101134.09;5097092;28;803;-64
2021/09/23 22:42:31;;;;;;;;;;;;;;;19.57;52.74;101129.97;5095631;28;788;-64
2021/09/23 22:44:56;;;;;;;;;;;;;;;19.51;52.79;101126.41;5096146;28;1968;-64
2021/09/23 22:47:21;;;;;;;;;;;;;;;19.56;52.78;101123.63;5097070;28;1454;-64
2021/09/23 22:49:47;;;;;;;;;;;;;;;19.56;52.79;101128.31;5096400;28;1653;-64
2021/09/23 22:52:12;;;;;;;;;;;;;;;19.71;52.32;101122.69;5096668;28;1057;-64
2021/09/23 22:54:38;;;;;;;;;;;;;;;19.73;52.23;101126.00;5097225;28;766;-64
2021/09/23 22:57:04;;;;;;;;;;;;;;;19.59;52.45;101113.97;5096200;28;767;-64
2021/09/23 22:59:29;;;;;;;;;;;;;;;19.81;51.86;101106.09;5095843;28;833;-65
2021/09/23 23:01:55;;;;;;;;;;;;;;;19.71;52.22;101097.84;5097027;28;862;-63
2021/09/23 23:04:20;;;;;;;;;;;;;;;19.58;52.76;101107.59;5096210;28;2063;-63
2021/09/23 23:06:46;;;;;;;;;;;;;;;19.54;52.69;101112.03;5096337;28;1078;-63
2021/09/23 23:09:11;;;;;;;;;;;;;;;19.62;52.64;101105.91;5096555;28;727;-63
2021/09/23 23:11:36;;;;;;;;;;;;;;;19.60;52.58;101108.16;5095645;28;1410;-63
2021/09/23 23:14:02;;;;;;;;;;;;;;;19.52;52.78;101099.63;5096945;28;894;-62
2021/09/23 23:16:27;;;;;;;;;;;;;;;19.54;52.61;101097.44;5096828;28;775;-63
2021/09/23 23:18:53;;;;;;;;;;;;;;;19.62;52.46;101094.06;5095885;28;807;-63
2021/09/23 23:21:19;;;;;;;;;;;;;;;19.58;52.64;101093.00;5095905;28;1128;-64
2021/09/23 23:23:44;;;;;;;;;;;;;;;19.55;52.77;101101.84;5096322;28;775;-64
2021/09/23 23:26:09;;;;;;;;;;;;;;;19.59;52.64;101089.94;5095960;28;1937;-64
2021/09/23 23:28:35;;;;;;;;;;;;;;;19.62;52.54;101094.88;5096485;28;731;-64
2021/09/23 23:31:00;;;;;;;;;;;;;;;19.62;52.42;101094.06;5096243;28;991;-64
2021/09/23 23:33:26;;;;;;;;;;;;;;;19.44;52.87;101092.81;5095401;28;998;-64
2021/09/23 23:35:51;;;;;;;;;;;;;;;19.48;52.83;101089.19;5096280;28;1476;-63
2021/09/23 23:38:16;;;;;;;;;;;;;;;19.55;52.63;101082.53;5095707;28;1023;-64
2021/09/23 23:40:44;;;;;;;;;;;;;;;19.59;52.44;101092.72;5095029;28;1183;-64
2021/09/23 23:43:09;;;;;;;;;;;;;;;19.51;52.81;101096.06;5095978;28;1093;-64
2021/09/23 23:45:36;;;;;;;;;;;;;;;19.62;52.51;101089.38;5095909;28;1905;-64
2021/09/23 23:48:02;;;;;;;;;;;;;;;19.75;52.18;101084.31;5095476;28;748;-64
2021/09/23 23:50:28;;;;;;;;;;;;;;;19.64;52.34;101086.31;5095537;28;819;-64
2021/09/23 23:52:54;;;;;;;;;;;;;;;19.65;52.46;101086.03;5095256;28;1087;-64
2021/09/23 23:55:19;;;;;;;;;;;;;;;19.69;52.24;101080.78;5095982;28;807;-64
2021/09/23 23:57:45;;;;;;;;;;;;;;;19.67;52.40;101080.25;5095392;28;846;-64
